VTBSVTSM

Guest
Details From VTBS - Bangkok Suvarnabhumi Intl
To VTSM - Samui
Flight Number -
Tags decoded
Created
Modified
Stats Distance 251 nm / 466 km
Max Altitude 0 ft / 0 m
Waypoints 2
Social Downloads 0
Likes 0
Share VATSIM

Download

Looking for another format? Having issues loading an existing format? Contact us
Advertisement - Login to hide

Notes

Requested: VTBS VTSM

Route

VTBS VTSM

ID Type Via Altitude Latitude Longitude Leg Dist Tot Dist Heading (true) Name
O VTBS APT - 0 ft / 0 m 13.68046˚ 100.74751˚ - 0 nm - Bangkok Suvarnabhumi Intl
O VTSM APT - 0 ft / 0 m 9.54794˚ 100.06246˚ 251 nm 251 nm 189° / 189° Samui

Altitude Profile

Advertisement - Login to hide

Weather


0- 5 10 15 20 25 30 35+ Temperature / ° C

Clouds and Precipitation
Forecast for 2018-05-26 00:00 UTC. Updated 2 hours ago

Ground ~20,000 ft ~40,000 ft Winds

VTBS

Details ICAO VTBS (BKK)
Name Bangkok Suvarnabhumi Intl
Region Thailand
Timezone Asia/Bangkok (UTC+7.0)
Stats Elevation 5 ft / 2 m (AMSL)
Location 13.680456° 100.747512°
Runways 2
Magnetic Variation 0.569° W

METAR

VTBS 260100Z 08003KT 020V160 9999 SCT016 FEW018CB BKN030 29/25 Q1009 RETS NOSIG

Decode

TAF

TAF VTBS 252300Z 2600/2706 08005KT 9999 FEW020 BECMG 2603/2605 20008KT TEMPO 2607/2610 VRB15KT 6000 -TSRA FEW018CB SCT030 BECMG 2620/2622 14005KT BECMG 2702/2704 20008KT

Decode

Departure Runways

ID Width Length Bearing (true) Bearing (mag) Surface Threshold Offset Overrun Length
01L 200 ft / 61 m 12,194 ft / 3,717 m 14.26° 14.83° Asphalt 0 ft / 0 m 400 ft / 122 m
01R 200 ft / 61 m 13,181 ft / 4,018 m 14.19° 14.76° Asphalt 0 ft / 0 m 400 ft / 122 m
19L 200 ft / 61 m 13,181 ft / 4,018 m 194.19° 194.76° Asphalt 0 ft / 0 m 400 ft / 122 m
19R 200 ft / 61 m 12,194 ft / 3,717 m 194.26° 194.83° Asphalt 0 ft / 0 m 400 ft / 122 m

VTSM

Details ICAO VTSM (USM)
Name Samui
Region Thailand
Timezone Asia/Bangkok (UTC+7.0)
Stats Elevation 64 ft / 20 m (AMSL)
Location 9.547939° 100.062457°
Runways 1
Magnetic Variation 0.379° W

METAR

VTSM 260100Z 00000KT 9000 FEW018CB 30/27 Q1010 NOSIG

Decode

TAF

TAF VTSM 252300Z 2600/2624 15005KT 9999 FEW020 TEMPO 2604/2610 VRB10G20KT 6000 -TSRA FEW016CB SCT018 BKN100

Decode

Destination Runways

ID Width Length Bearing (true) Bearing (mag) Surface Threshold Offset Overrun Length
17 148 ft / 45 m 6,795 ft / 2,071 m 174.49° 174.87° Asphalt 853 ft / 260 m 148 ft / 45 m
35 148 ft / 45 m 6,795 ft / 2,071 m 354.49° 354.87° Asphalt 1,109 ft / 338 m 197 ft / 60 m

Popular Alternatives